Time;durP1;ratioP1;P1;durP2;ratioP2;P2;SDS_P1;SDS_P2;PMS_P1;PMS_P2;Temp;Humidity;BMP_temperature;BMP_pressure;BME280_temperature;BME280_humidity;BME280_pressure;Samples;Min_cycle;Max_cycle;Signal;HPM_P1;HPM_P2
2021/05/20 00:01:12;;;;;;;5.07;1.77;;;;;;;10.03;61.36;101032.34;4390822;32;20081;-76
2021/05/20 00:03:38;;;;;;;5.10;1.60;;;;;;;10.03;61.49;101035.94;4389058;32;20114;-74
2021/05/20 00:06:05;;;;;;;6.45;1.75;;;;;;;10.04;61.48;101034.72;4391883;32;20046;-73
2021/05/20 00:08:31;;;;;;;3.30;1.40;;;;;;;10.00;61.94;101028.38;4392116;32;20050;-76
2021/05/20 00:10:57;;;;;;;6.53;1.60;;;;;;;10.02;62.10;101030.75;4389958;32;20046;-75
2021/05/20 00:13:23;;;;;;;7.03;1.83;;;;;;;9.98;62.43;101033.63;4387368;32;20062;-74
2021/05/20 00:15:48;;;;;;;7.20;1.83;;;;;;;9.97;62.42;101036.84;4389568;32;20426;-75
2021/05/20 00:18:14;;;;;;;6.30;2.15;;;;;;;10.01;62.19;101037.59;4389737;32;20157;-74
2021/05/20 00:20:40;;;;;;;7.12;1.75;;;;;;;9.94;61.99;101035.69;4389939;32;20402;-75
2021/05/20 00:23:06;;;;;;;6.32;1.87;;;;;;;9.80;62.33;101021.91;4393243;32;20046;-75
2021/05/20 00:25:32;;;;;;;7.40;1.58;;;;;;;10.02;61.54;101016.69;4391059;32;20046;-75
2021/05/20 00:27:57;;;;;;;4.22;1.70;;;;;;;10.03;61.45;101015.47;4391823;32;20146;-75
2021/05/20 00:30:23;;;;;;;5.37;1.30;;;;;;;10.01;61.34;101001.06;4390921;32;20077;-75
2021/05/20 00:32:50;;;;;;;5.68;1.27;;;;;;;10.00;61.37;101003.06;4388596;32;20074;-75
2021/05/20 00:35:15;;;;;;;8.77;2.45;;;;;;;10.03;61.16;101007.03;4390416;32;20054;-75
2021/05/20 00:37:41;;;;;;;6.90;2.17;;;;;;;9.92;61.93;101015.63;4388923;32;20043;-75
2021/05/20 00:40:07;;;;;;;8.10;2.28;;;;;;;9.88;62.01;101014.13;4390938;32;20039;-75
2021/05/20 00:42:34;;;;;;;7.78;2.53;;;;;;;9.89;62.38;101010.91;4389417;32;20043;-75
2021/05/20 00:45:02;;;;;;;3.78;1.55;;;;;;;9.90;62.29;101015.28;4392114;32;20154;-74
2021/05/20 00:47:30;;;;;;;5.55;1.50;;;;;;;9.95;62.63;101005.56;4388739;32;20105;-74
2021/05/20 00:49:57;;;;;;;8.40;1.50;;;;;;;9.88;62.13;101012.09;4387357;32;20379;-74
2021/05/20 00:52:23;;;;;;;4.65;1.58;;;;;;;9.92;62.04;101017.69;4392546;32;20051;-75
2021/05/20 00:54:52;;;;;;;6.65;1.30;;;;;;;9.91;61.97;101013.25;4388050;32;20340;-76
2021/05/20 00:57:19;;;;;;;7.05;1.45;;;;;;;10.00;61.36;100999.44;4389093;32;20093;-77
2021/05/20 00:59:47;;;;;;;4.78;1.40;;;;;;;9.93;61.54;101006.00;4390871;32;20070;-74
2021/05/20 01:02:13;;;;;;;4.85;1.60;;;;;;;9.97;61.78;101008.72;4391590;32;20081;-74
2021/05/20 01:04:39;;;;;;;5.43;1.85;;;;;;;9.86;62.00;101005.31;4389860;32;20503;-74
2021/05/20 01:07:06;;;;;;;4.68;1.58;;;;;;;9.81;62.20;101001.00;4385665;32;20047;-75
2021/05/20 01:09:35;;;;;;;6.20;1.90;;;;;;;9.77;62.69;101008.69;4388842;32;20433;-76
2021/05/20 01:12:04;;;;;;;5.20;1.90;;;;;;;9.79;62.49;100999.84;4394594;32;20078;-75
2021/05/20 01:14:36;;;;;;;6.90;2.37;;;;;;;9.85;62.44;100998.12;4394007;32;20073;-75
2021/05/20 01:17:02;;;;;;;7.32;2.03;;;;;;;9.94;62.28;101003.97;4394811;32;20405;-76
2021/05/20 01:19:28;;;;;;;8.38;2.30;;;;;;;10.00;61.99;100996.63;4386769;32;20159;-74
2021/05/20 01:21:54;;;;;;;9.75;1.92;;;;;;;10.02;61.92;100992.19;4391372;32;20074;-74
2021/05/20 01:24:19;;;;;;;6.35;1.77;;;;;;;9.84;62.51;100990.91;4392529;32;20042;-74
2021/05/20 01:26:45;;;;;;;6.82;1.73;;;;;;;9.85;62.74;100995.31;4391530;32;20139;-75
2021/05/20 01:29:11;;;;;;;11.02;1.62;;;;;;;9.83;62.90;100995.75;4387859;32;20092;-75
2021/05/20 01:31:37;;;;;;;6.97;2.08;;;;;;;9.84;63.10;100985.28;4389078;32;20047;-75
2021/05/20 01:34:03;;;;;;;9.95;2.33;;;;;;;9.82;63.25;100996.94;4389455;32;20085;-75
2021/05/20 01:36:30;;;;;;;6.10;1.73;;;;;;;9.78;63.35;100990.59;4386729;32;20051;-75
2021/05/20 01:38:59;;;;;;;5.82;2.80;;;;;;;9.83;63.33;100980.88;4387746;32;20124;-74
2021/05/20 01:41:25;;;;;;;10.50;2.60;;;;;;;9.83;63.42;100981.69;4389159;32;20061;-75
2021/05/20 01:43:50;;;;;;;5.45;1.95;;;;;;;9.54;63.99;100988.97;4390940;32;20074;-75
2021/05/20 01:46:16;;;;;;;5.03;1.90;;;;;;;9.61;63.72;100982.47;4389020;32;20042;-74
2021/05/20 01:48:44;;;;;;;9.77;2.20;;;;;;;9.54;63.66;100979.75;4390570;32;20420;-75
2021/05/20 01:51:15;;;;;;;6.45;2.03;;;;;;;9.68;63.28;100976.72;4391185;32;21193;-75
2021/05/20 01:53:43;;;;;;;8.00;1.98;;;;;;;9.55;63.72;100976.50;4391581;32;20104;-75
2021/05/20 01:56:10;;;;;;;4.72;1.80;;;;;;;9.58;63.39;100970.03;4389746;32;20093;-75
2021/05/20 01:58:37;;;;;;;10.18;2.22;;;;;;;9.58;63.53;100969.28;4391775;32;20078;-74
2021/05/20 02:01:04;;;;;;;8.30;2.12;;;;;;;9.61;63.54;100952.34;4393405;32;20053;-74
2021/05/20 02:03:30;;;;;;;8.55;2.30;;;;;;;9.60;63.82;100952.75;4379499;32;20445;-75
2021/05/20 02:05:57;;;;;;;10.20;2.87;;;;;;;9.48;64.31;100953.38;4389860;32;20082;-74
2021/05/20 02:08:25;;;;;;;6.43;1.90;;;;;;;9.48;64.42;100947.78;4391070;32;20126;-74
2021/05/20 02:10:51;;;;;;;7.25;2.05;;;;;;;9.57;64.05;100940.38;4386550;32;20078;-75
2021/05/20 02:13:16;;;;;;;7.20;2.20;;;;;;;9.54;64.22;100929.19;4390160;32;20099;-75
2021/05/20 02:15:42;;;;;;;12.25;2.78;;;;;;;9.56;64.14;100933.16;4390356;32;20428;-74
2021/05/20 02:18:08;;;;;;;13.75;2.62;;;;;;;9.50;64.69;100928.44;4394594;32;20085;-73
2021/05/20 02:20:35;;;;;;;11.43;2.85;;;;;;;9.34;65.20;100926.31;4388777;32;20066;-74
2021/05/20 02:23:01;;;;;;;13.10;3.00;;;;;;;9.31;65.41;100926.38;4388701;32;20058;-75
2021/05/20 02:25:26;;;;;;;9.55;2.92;;;;;;;9.33;65.27;100932.37;4385808;32;20183;-74
2021/05/20 02:27:52;;;;;;;6.97;2.00;;;;;;;9.23;65.79;100925.69;4388846;32;20454;-75
2021/05/20 02:30:19;;;;;;;9.68;2.47;;;;;;;9.27;65.61;100925.63;4388054;32;20115;-75
2021/05/20 02:32:45;;;;;;;5.70;1.92;;;;;;;9.27;65.69;100920.03;4390531;32;20472;-74
2021/05/20 02:35:12;;;;;;;5.93;2.00;;;;;;;9.16;65.83;100917.38;4390333;32;20039;-75
2021/05/20 02:37:39;;;;;;;10.18;2.08;;;;;;;9.25;65.23;100926.06;4388212;32;20054;-75
2021/05/20 02:40:08;;;;;;;8.18;2.05;;;;;;;9.18;65.72;100923.34;4388047;32;20042;-74
2021/05/20 02:42:34;;;;;;;11.30;2.15;;;;;;;9.07;65.72;100922.72;4387480;32;20030;-75
2021/05/20 02:44:59;;;;;;;7.57;2.33;;;;;;;9.05;65.86;100913.16;4387043;32;20143;-74
2021/05/20 02:47:25;;;;;;;10.00;2.60;;;;;;;9.11;65.48;100912.22;4389347;32;20038;-74
2021/05/20 02:49:51;;;;;;;11.23;2.80;;;;;;;9.12;65.67;100908.22;4394862;32;20056;-75
2021/05/20 02:52:17;;;;;;;9.27;2.35;;;;;;;9.02;66.02;100897.94;4391307;32;20144;-75
2021/05/20 02:54:43;;;;;;;11.20;2.72;;;;;;;9.04;66.08;100903.91;4389581;32;20711;-74
2021/05/20 02:57:08;;;;;;;7.60;2.20;;;;;;;9.13;65.79;100904.19;4386078;32;20082;-75
2021/05/20 02:59:36;;;;;;;6.95;2.45;;;;;;;9.08;66.01;100901.84;4386855;32;20129;-75
2021/05/20 03:02:06;;;;;;;7.97;2.70;;;;;;;8.95;66.60;100891.63;4388346;32;20124;-74
2021/05/20 03:04:34;;;;;;;8.73;2.62;;;;;;;8.93;66.77;100891.28;4385882;32;20101;-75
2021/05/20 03:07:01;;;;;;;12.98;2.53;;;;;;;9.02;66.64;100894.34;4387133;32;20026;-73
2021/05/20 03:09:27;;;;;;;7.55;2.30;;;;;;;9.07;66.34;100896.66;4386969;32;20027;-75
2021/05/20 03:11:55;;;;;;;9.80;2.65;;;;;;;8.96;66.56;100874.34;4390940;32;20156;-74
2021/05/20 03:14:21;;;;;;;4.78;2.75;;;;;;;8.88;66.98;100880.50;4390420;32;20078;-75
2021/05/20 03:16:47;;;;;;;9.82;2.75;;;;;;;9.01;66.27;100879.50;4393286;32;20098;-74
2021/05/20 03:19:14;;;;;;;8.77;2.15;;;;;;;9.08;65.85;100882.19;4390604;32;20092;-75
2021/05/20 03:21:40;;;;;;;13.90;3.03;;;;;;;9.18;65.24;100874.84;4380208;32;20104;-75
2021/05/20 03:24:06;;;;;;;11.90;3.03;;;;;;;9.00;65.81;100877.94;4389061;32;20109;-75
2021/05/20 03:26:32;;;;;;;7.50;3.10;;;;;;;9.07;65.89;100874.19;4393226;32;20889;-74
2021/05/20 03:28:58;;;;;;;6.80;2.70;;;;;;;9.04;65.99;100867.44;4389296;32;20120;-75
2021/05/20 03:31:24;;;;;;;5.95;2.35;;;;;;;9.07;65.92;100858.16;4390919;32;20089;-75
2021/05/20 03:33:50;;;;;;;10.27;2.78;;;;;;;9.10;65.98;100853.69;4391794;32;20106;-75
2021/05/20 03:36:15;;;;;;;5.78;2.37;;;;;;;9.15;65.98;100859.66;4390264;32;20138;-74
2021/05/20 03:38:41;;;;;;;6.40;2.53;;;;;;;9.15;65.90;100848.41;4394334;32;20031;-74
2021/05/20 03:41:07;;;;;;;7.20;2.60;;;;;;;9.13;66.05;100844.41;4391891;32;20068;-74
2021/05/20 03:43:34;;;;;;;8.65;2.65;;;;;;;9.13;65.83;100842.41;4394422;32;20139;-75
2021/05/20 03:46:00;;;;;;;7.03;2.60;;;;;;;9.30;65.64;100834.91;4390677;32;20042;-74
2021/05/20 03:48:26;;;;;;;12.25;2.90;;;;;;;9.33;65.34;100842.50;4388244;32;20073;-74
2021/05/20 03:50:52;;;;;;;10.27;2.65;;;;;;;9.27;65.36;100830.16;4390530;32;20042;-74
2021/05/20 03:53:18;;;;;;;9.18;3.00;;;;;;;9.40;65.09;100825.50;4392226;32;20095;-74
2021/05/20 03:55:46;;;;;;;10.25;2.90;;;;;;;9.43;64.69;100831.06;4388247;32;20035;-74
2021/05/20 03:58:15;;;;;;;8.07;2.65;;;;;;;9.45;64.48;100814.56;4389147;32;20038;-74
2021/05/20 04:00:40;;;;;;;14.60;2.90;;;;;;;9.45;64.48;100814.56;4393829;32;20055;-75
2021/05/20 04:03:06;;;;;;;10.65;2.70;;;;;;;9.47;64.56;100820.56;4392468;32;20193;-74
2021/05/20 04:05:32;;;;;;;12.43;2.95;;;;;;;9.46;64.88;100816.16;4390706;32;20082;-75
2021/05/20 04:07:58;;;;;;;6.65;2.70;;;;;;;9.43;64.64;100813.41;4392087;32;20627;-74
2021/05/20 04:10:24;;;;;;;11.65;2.78;;;;;;;9.46;64.71;100809.75;4392033;32;20038;-74
2021/05/20 04:12:55;;;;;;;8.25;2.50;;;;;;;9.56;64.45;100806.75;4391947;32;20148;-75
2021/05/20 04:15:21;;;;;;;11.65;3.10;;;;;;;9.59;64.15;100802.28;4392540;32;20039;-74
2021/05/20 04:17:47;;;;;;;8.60;2.92;;;;;;;9.59;64.12;100802.28;4393870;32;20054;-74
2021/05/20 04:20:13;;;;;;;9.63;2.33;;;;;;;9.68;64.04;100794.06;4392639;32;20099;-74
2021/05/20 04:22:39;;;;;;;7.30;2.70;;;;;;;9.77;64.03;100794.28;4389321;32;20066;-74
2021/05/20 04:25:05;;;;;;;10.32;2.72;;;;;;;9.64;64.28;100782.87;4376802;32;20050;-74
2021/05/20 04:27:31;;;;;;;12.98;2.87;;;;;;;9.76;63.83;100790.69;4394832;32;20038;-74
2021/05/20 04:29:57;;;;;;;7.93;2.70;;;;;;;9.76;63.45;100784.28;4376199;32;20379;-74
2021/05/20 04:32:24;;;;;;;6.87;2.55;;;;;;;9.86;63.62;100783.28;4393035;32;20031;-74
2021/05/20 04:34:50;;;;;;;10.38;2.92;;;;;;;9.95;63.57;100787.06;4389392;32;20065;-74
2021/05/20 04:37:16;;;;;;;9.18;2.92;;;;;;;10.08;63.03;100784.44;4390121;32;20051;-74
2021/05/20 04:39:42;;;;;;;12.40;3.60;;;;;;;10.19;62.41;100767.34;4388365;32;20042;-74
2021/05/20 04:42:09;;;;;;;9.35;3.20;;;;;;;10.27;62.72;100768.78;4393184;32;20143;-74
2021/05/20 04:44:34;;;;;;;11.63;3.47;;;;;;;10.46;62.33;100762.31;4387940;32;21094;-75
2021/05/20 04:47:00;;;;;;;8.18;3.58;;;;;;;10.49;62.10;100756.59;4392750;32;20103;-74
2021/05/20 04:49:26;;;;;;;6.30;2.80;;;;;;;10.60;61.68;100757.12;4392123;32;20030;-75
2021/05/20 04:51:52;;;;;;;10.00;2.85;;;;;;;10.71;61.64;100756.88;4388658;32;20070;-74
2021/05/20 04:54:17;;;;;;;7.75;3.00;;;;;;;10.87;61.19;100754.06;4390361;32;20051;-74
2021/05/20 04:56:43;;;;;;;9.85;2.87;;;;;;;11.14;60.42;100749.72;4388279;32;20065;-74
2021/05/20 04:59:08;;;;;;;9.60;2.70;;;;;;;11.29;59.80;100750.94;4393340;32;20119;-74
2021/05/20 05:01:34;;;;;;;15.20;3.03;;;;;;;11.34;58.57;100746.78;4391395;32;20124;-74
2021/05/20 05:04:00;;;;;;;8.52;3.20;;;;;;;11.51;58.69;100751.94;4388407;32;20495;-75
2021/05/20 05:06:26;;;;;;;8.68;2.65;;;;;;;11.53;58.79;100746.66;4391912;32;20100;-75
2021/05/20 05:08:52;;;;;;;11.80;3.50;;;;;;;11.66;58.63;100744.69;4390635;32;20042;-76
2021/05/20 05:11:18;;;;;;;10.30;3.60;;;;;;;11.82;58.14;100738.22;4388777;32;20104;-74
2021/05/20 05:13:43;;;;;;;8.68;3.33;;;;;;;11.87;58.63;100744.09;4390677;32;20415;-75
2021/05/20 05:16:09;;;;;;;10.43;3.55;;;;;;;11.98;57.66;100744.56;4392622;32;20035;-76
2021/05/20 05:18:35;;;;;;;12.00;3.55;;;;;;;12.02;58.01;100739.59;4389087;32;20442;-75
2021/05/20 05:21:02;;;;;;;8.98;3.72;;;;;;;12.12;57.97;100737.69;4394590;32;20092;-75
2021/05/20 05:23:28;;;;;;;11.48;3.67;;;;;;;12.21;57.86;100731.41;4390839;32;20043;-75
2021/05/20 05:25:54;;;;;;;9.35;3.62;;;;;;;12.34;57.62;100730.19;4390206;32;20688;-75
2021/05/20 05:28:19;;;;;;;14.35;4.97;;;;;;;12.44;57.21;100722.59;4389758;32;20107;-74
2021/05/20 05:30:46;;;;;;;11.88;4.20;;;;;;;12.60;56.74;100726.09;4390143;32;20065;-75
2021/05/20 05:33:11;;;;;;;9.93;4.43;;;;;;;12.86;56.27;100713.50;4391464;32;20456;-75
2021/05/20 05:35:37;;;;;;;12.10;3.95;;;;;;;12.83;56.35;100710.81;4387072;32;20073;-75
2021/05/20 05:38:03;;;;;;;12.95;4.10;;;;;;;12.91;56.50;100709.31;4391568;32;20060;-75
2021/05/20 05:40:30;;;;;;;13.07;5.00;;;;;;;12.95;56.18;100702.31;4388824;32;21581;-74
2021/05/20 05:42:55;;;;;;;20.02;5.32;;;;;;;13.08;56.13;100703.12;4393612;32;20064;-75
2021/05/20 05:45:21;;;;;;;18.42;4.57;;;;;;;13.24;55.50;100702.94;4389463;32;20038;-75
2021/05/20 05:47:48;;;;;;;17.80;4.62;;;;;;;13.31;55.79;100699.84;4376796;32;20077;-75
2021/05/20 05:50:15;;;;;;;17.23;4.55;;;;;;;13.37;55.70;100698.03;4391496;32;20104;-75
2021/05/20 05:52:41;;;;;;;12.90;4.18;;;;;;;13.32;56.40;100697.84;4392301;32;20085;-76
2021/05/20 05:55:08;;;;;;;7.07;2.33;;;;;;;13.52;56.16;100687.00;4388510;32;20482;-74
2021/05/20 05:57:34;;;;;;;8.43;1.50;;;;;;;13.62;55.38;100688.63;4391683;32;20112;-75
2021/05/20 05:59:59;;;;;;;8.20;2.10;;;;;;;13.48;55.46;100692.00;4387719;32;20038;-74
2021/05/20 06:02:26;;;;;;;11.90;2.05;;;;;;;13.73;54.79;100677.72;4388833;32;20089;-74
2021/05/20 06:04:53;;;;;;;8.05;2.47;;;;;;;13.98;54.13;100680.38;4387854;32;20796;-74
2021/05/20 06:07:19;;;;;;;9.48;2.20;;;;;;;13.99;54.04;100679.91;4387573;32;20135;-76
2021/05/20 06:09:45;;;;;;;13.35;2.47;;;;;;;14.11;53.67;100669.75;4387773;32;20432;-75
2021/05/20 06:12:11;;;;;;;10.98;2.10;;;;;;;14.05;54.24;100661.09;4392020;32;20108;-75
2021/05/20 06:14:40;;;;;;;8.70;2.10;;;;;;;14.29;53.14;100663.44;4386844;32;20078;-76
2021/05/20 06:17:07;;;;;;;17.87;2.95;;;;;;;14.05;53.72;100658.25;4390565;32;20112;-75
2021/05/20 06:19:32;;;;;;;9.00;2.22;;;;;;;14.37;52.85;100656.22;4390189;32;20625;-75
2021/05/20 06:21:58;;;;;;;13.57;3.15;;;;;;;14.38;52.61;100655.75;4391213;32;20058;-75
2021/05/20 06:24:24;;;;;;;14.38;3.67;;;;;;;14.42;52.59;100653.53;4388347;32;20058;-76
2021/05/20 06:26:50;;;;;;;18.95;4.50;;;;;;;14.53;52.21;100655.94;4388907;32;20116;-75
2021/05/20 06:29:16;;;;;;;13.20;3.12;;;;;;;14.52;52.52;100654.37;4385948;32;20038;-77
2021/05/20 06:31:42;;;;;;;19.62;3.40;;;;;;;14.75;51.54;100633.97;4392495;32;20051;-76
2021/05/20 06:34:07;;;;;;;8.52;2.83;;;;;;;14.67;51.97;100633.47;4387642;32;20074;-74
2021/05/20 06:36:34;;;;;;;9.20;2.22;;;;;;;14.66;51.63;100625.47;4384125;32;20050;-76
2021/05/20 06:39:00;;;;;;;11.55;2.85;;;;;;;14.79;51.19;100611.94;4386201;32;20178;-77
2021/05/20 06:41:26;;;;;;;8.50;2.58;;;;;;;14.59;51.77;100615.22;4382898;32;20419;-77
2021/05/20 06:43:53;;;;;;;10.35;3.47;;;;;;;14.61;51.51;100626.09;4383567;32;20082;-76
2021/05/20 06:46:18;;;;;;;9.55;2.33;;;;;;;14.68;51.45;100614.44;4378247;32;20093;-77
2021/05/20 06:48:44;;;;;;;8.70;1.80;;;;;;;14.79;51.07;100607.06;4384380;32;20431;-75
2021/05/20 06:51:10;;;;;;;9.00;1.87;;;;;;;14.79;50.89;100597.78;4387611;32;20453;-77
2021/05/20 06:53:37;;;;;;;7.15;2.28;;;;;;;14.82;50.69;100591.94;4370407;32;20459;-76
2021/05/20 06:56:05;;;;;;;9.57;2.65;;;;;;;14.80;50.98;100593.69;4378687;32;20049;-77
2021/05/20 07:01:17;;;;;;;8.75;2.37;;;;;;;14.80;50.63;100573.84;4374979;32;20075;-77
2021/05/20 07:03:44;;;;;;;7.12;2.30;;;;;;;14.78;51.17;100560.16;4375302;32;20047;-78
2021/05/20 07:06:11;;;;;;;9.40;2.50;;;;;;;14.93;50.45;100569.63;4376113;32;20042;-76
2021/05/20 07:08:38;;;;;;;6.90;2.50;;;;;;;14.79;50.67;100573.06;4376247;32;20105;-77
2021/05/20 07:11:04;;;;;;;9.43;2.95;;;;;;;14.79;50.85;100569.47;4374495;32;20090;-77
2021/05/20 07:13:30;;;;;;;7.53;2.78;;;;;;;14.59;51.53;100560.62;4377073;32;20047;-77
2021/05/20 07:15:56;;;;;;;6.20;2.80;;;;;;;14.50;51.99;100550.06;4376412;32;20086;-76
2021/05/20 07:18:22;;;;;;;12.68;4.35;;;;;;;14.63;51.58;100539.38;4375380;32;20085;-76
2021/05/20 07:20:48;;;;;;;12.37;3.33;;;;;;;14.82;51.25;100548.69;4374307;32;20447;-76
2021/05/20 07:23:16;;;;;;;9.07;3.53;;;;;;;14.82;51.51;100543.78;4377473;32;20114;-76
2021/05/20 07:25:43;;;;;;;12.70;3.50;;;;;;;14.92;51.65;100547.41;4381779;32;20148;-78
2021/05/20 07:28:10;;;;;;;8.85;3.00;;;;;;;15.09;51.24;100528.81;4380085;32;20114;-76
2021/05/20 07:30:36;;;;;;;10.60;3.65;;;;;;;15.19;51.13;100522.66;4378110;32;20075;-77
2021/05/20 07:33:02;;;;;;;9.65;3.97;;;;;;;15.20;51.40;100520.62;4378209;32;20271;-75
2021/05/20 07:35:27;;;;;;;8.40;2.78;;;;;;;15.20;51.49;100514.94;4379482;32;20042;-78
2021/05/20 07:37:53;;;;;;;11.43;4.37;;;;;;;15.36;51.04;100508.91;4381677;32;20593;-78
2021/05/20 07:40:20;;;;;;;9.68;3.40;;;;;;;15.35;51.25;100507.34;4380123;32;20082;-76
2021/05/20 07:42:46;;;;;;;8.23;3.12;;;;;;;15.69;50.85;100504.09;4381895;32;20043;-75
2021/05/20 07:45:14;;;;;;;8.95;2.97;;;;;;;15.86;50.48;100496.75;4383247;32;20066;-76
2021/05/20 07:47:42;;;;;;;15.68;3.30;;;;;;;15.69;50.98;100492.75;4379396;32;20109;-74
2021/05/20 07:50:09;;;;;;;14.43;3.40;;;;;;;15.61;51.40;100483.00;4381529;32;20102;-75
2021/05/20 07:52:34;;;;;;;12.32;3.50;;;;;;;15.80;50.86;100481.66;4376522;32;20071;-77
2021/05/20 07:55:00;;;;;;;22.67;3.65;;;;;;;15.61;51.11;100478.13;4379542;32;20137;-76
2021/05/20 07:57:26;;;;;;;12.63;3.50;;;;;;;15.50;51.80;100471.41;4366183;32;20093;-75
2021/05/20 07:59:52;;;;;;;13.93;4.18;;;;;;;15.26;52.14;100453.50;4377710;32;20105;-77
2021/05/20 08:05:07;;;;;;;13.02;4.60;;;;;;;15.33;52.23;100444.66;3980573;32;15023579;-75
2021/05/20 08:12:46;;;;;;;12.50;4.43;;;;;;;15.39;52.28;100442.78;3977624;32;15024697;-74
2021/05/20 08:15:12;;;;;;;24.92;5.70;;;;;;;15.39;52.28;100442.78;4427692;32;20124;-76
2021/05/20 08:17:38;;;;;;;18.10;4.32;;;;;;;15.02;52.66;100444.91;4430241;32;20072;-75
2021/05/20 08:20:05;;;;;;;12.48;4.45;;;;;;;14.78;53.66;100434.72;4427661;32;20483;-76
2021/05/20 08:22:31;;;;;;;7.87;3.67;;;;;;;14.69;54.16;100423.41;4428781;32;20577;-75
2021/05/20 08:24:58;;;;;;;15.23;4.28;;;;;;;14.39;54.90;100405.34;4422976;32;20080;-76
2021/05/20 08:27:23;;;;;;;13.07;4.57;;;;;;;14.50;54.89;100407.69;4427282;32;20053;-76
2021/05/20 08:29:49;;;;;;;13.20;4.15;;;;;;;14.78;54.35;100403.56;4423338;32;20139;-77
2021/05/20 08:32:16;;;;;;;8.45;3.95;;;;;;;14.79;54.19;100403.09;4428618;32;20085;-76
2021/05/20 08:34:42;;;;;;;7.62;3.80;;;;;;;15.12;53.36;100395.44;4428202;32;20081;-75
2021/05/20 08:37:08;;;;;;;9.52;3.92;;;;;;;15.31;52.66;100370.66;4424064;32;20820;-75
2021/05/20 08:39:34;;;;;;;12.63;3.30;;;;;;;15.51;52.57;100366.00;4425260;32;20064;-78
2021/05/20 08:41:59;;;;;;;8.10;3.12;;;;;;;15.56;52.36;100364.56;4424115;32;20097;-77
2021/05/20 08:44:27;;;;;;;7.30;3.33;;;;;;;15.91;51.54;100352.19;4425561;32;20041;-75
2021/05/20 08:46:57;;;;;;;17.42;3.80;;;;;;;15.44;52.78;100343.66;4424722;32;20544;-74
2021/05/20 08:49:24;;;;;;;11.90;3.47;;;;;;;15.35;53.12;100325.88;4426139;32;20090;-77
2021/05/20 08:51:50;;;;;;;11.85;3.87;;;;;;;15.31;53.53;100305.44;4425150;32;20138;-77
2021/05/20 08:54:18;;;;;;;7.40;3.15;;;;;;;15.42;53.18;100315.00;4423689;32;20095;-76
2021/05/20 08:56:45;;;;;;;11.40;3.17;;;;;;;15.46;52.73;100301.44;4424864;32;20472;-74
2021/05/20 08:59:12;;;;;;;7.20;3.55;;;;;;;15.50;52.82;100310.53;4423913;32;20089;-75
2021/05/20 09:01:40;;;;;;;9.68;3.33;;;;;;;15.32;53.55;100290.78;4418765;32;20382;-75
2021/05/20 09:04:07;;;;;;;14.38;4.00;;;;;;;15.80;52.67;100283.84;4407426;32;20147;-76
2021/05/20 09:09:17;;;;;;;20.25;4.90;;;;;;;16.66;50.93;100278.75;3974113;32;15155679;-75
2021/05/20 09:11:50;;;;;;;9.20;3.30;;;;;;;16.66;50.93;100278.75;4432787;32;20132;-74
2021/05/20 09:14:34;;;;;;;10.40;3.10;;;;;;;16.51;50.77;100272.28;4428996;32;20288;-74
2021/05/20 09:17:17;;;;;;;10.63;3.20;;;;;;;16.67;49.99;100271.81;4431428;32;20080;-75
2021/05/20 09:19:52;;;;;;;9.73;2.37;;;;;;;16.86;49.99;100258.13;4431447;32;20152;-76
2021/05/20 09:22:18;;;;;;;9.80;2.83;;;;;;;16.76;49.71;100248.16;4431438;32;20215;-74
2021/05/20 09:30:23;;;;;;;9.05;2.45;;;;;;;17.59;48.37;100208.28;3970909;32;15026901;-77
2021/05/20 09:35:30;;;;;;;9.40;2.78;;;;;;;17.44;48.45;100198.25;3979512;32;15024462;-74
2021/05/20 09:43:32;;;;;;;16.75;2.45;;;;;;;17.00;49.50;100186.25;3969696;32;15027468;-72
2021/05/20 09:46:01;;;;;;;13.77;2.83;;;;;;;17.00;49.50;100186.25;4422586;32;20790;-74
2021/05/20 09:48:34;;;;;;;6.75;2.78;;;;;;;16.75;50.20;100181.25;4418728;32;20145;-73
2021/05/20 09:51:00;;;;;;;9.13;2.60;;;;;;;16.67;50.09;100185.78;4420312;32;20866;-75
2021/05/20 09:53:28;;;;;;;9.85;2.65;;;;;;;16.43;50.74;100163.19;4417519;32;20113;-75
2021/05/20 09:55:58;;;;;;;11.20;3.08;;;;;;;15.99;52.59;100162.44;4417613;32;20096;-76
2021/05/20 09:58:27;;;;;;;12.43;3.25;;;;;;;15.94;52.94;100163.13;4420353;32;20061;-75
2021/05/20 10:00:54;;;;;;;6.82;2.78;;;;;;;15.85;53.35;100149.81;4419384;32;20569;-77
2021/05/20 10:03:22;;;;;;;9.38;2.50;;;;;;;15.89;53.09;100138.25;4420288;32;20542;-74
2021/05/20 10:05:52;;;;;;;8.23;2.25;;;;;;;16.08;52.49;100131.13;4415537;32;20078;-77
2021/05/20 10:08:20;;;;;;;7.37;2.20;;;;;;;16.15;52.04;100125.03;4413986;32;20140;-75
2021/05/20 10:10:48;;;;;;;10.13;2.42;;;;;;;16.30;51.81;100128.63;4416388;32;20062;-75
2021/05/20 10:13:16;;;;;;;13.57;2.20;;;;;;;16.46;51.57;100125.31;4419174;32;20139;-79
2021/05/20 10:15:43;;;;;;;12.37;2.45;;;;;;;16.81;50.61;100106.16;4419229;32;20088;-76
2021/05/20 10:18:13;;;;;;;9.85;2.60;;;;;;;16.89;50.74;100110.16;4432208;32;20107;-77
2021/05/20 10:20:41;;;;;;;11.43;2.40;;;;;;;17.13;50.24;100109.94;4416465;32;20071;-75
2021/05/20 10:23:09;;;;;;;9.75;2.50;;;;;;;16.98;50.50;100109.22;4417305;32;20655;-75
2021/05/20 10:25:36;;;;;;;15.10;2.17;;;;;;;17.05;51.06;100098.22;4415574;32;21142;-75
2021/05/20 10:28:03;;;;;;;12.07;1.95;;;;;;;16.59;51.28;100099.38;4419840;32;20076;-77
2021/05/20 10:30:29;;;;;;;6.03;2.00;;;;;;;16.06;53.42;100090.28;4420332;32;20092;-76
2021/05/20 10:32:57;;;;;;;9.55;2.20;;;;;;;15.72;54.29;100089.75;4418910;32;20650;-75
2021/05/20 10:35:38;;;;;;;8.75;2.85;;;;;;;15.67;56.06;100075.44;4414914;32;21266;-76
2021/05/20 10:38:05;;;;;;;9.30;2.17;;;;;;;15.92;55.06;100060.66;4419779;32;20045;-76
2021/05/20 10:40:33;;;;;;;14.10;2.42;;;;;;;16.04;54.64;100039.69;4417662;32;20131;-76
2021/05/20 10:43:08;;;;;;;13.88;2.20;;;;;;;16.03;53.75;100058.00;4413793;32;20478;-74
2021/05/20 10:45:36;;;;;;;8.20;1.73;;;;;;;15.79;53.81;100034.66;4420880;32;20469;-76
2021/05/20 10:59:02;;;;;;;5.30;1.98;;;;;;;15.96;54.61;100038.56;3992729;31;15016895;-77
2021/05/20 11:04:06;;;;;;;6.75;2.12;;;;;;;15.17;57.71;100036.87;3950739;32;15723468;-78
2021/05/20 11:09:14;;;;;;;11.52;2.37;;;;;;;14.62;61.65;100036.56;3972949;32;15024722;-77
2021/05/20 11:16:52;;;;;;;15.38;2.17;;;;;;;14.09;63.08;100007.31;3978823;32;15022958;-78
2021/05/20 11:24:34;;;;;;;10.23;2.45;;;;;;;13.67;67.44;99989.62;3974024;32;15022566;-74
2021/05/20 11:27:02;;;;;;;7.87;2.00;;;;;;;13.67;67.44;99989.62;4430563;32;20519;-74
2021/05/20 11:29:29;;;;;;;6.53;2.55;;;;;;;12.95;69.32;99970.03;4431584;32;20076;-73
2021/05/20 11:32:01;;;;;;;9.80;2.53;;;;;;;12.83;70.61;99962.50;4432925;32;20115;-74
2021/05/20 11:34:47;;;;;;;9.25;3.28;;;;;;;12.68;71.07;99948.25;4433524;32;20034;-74
2021/05/20 11:37:26;;;;;;;9.85;3.05;;;;;;;12.57;72.81;99952.78;4436278;32;20099;-74
2021/05/20 11:39:52;;;;;;;12.85;3.55;;;;;;;12.70;73.32;99953.44;4434415;32;20068;-74
2021/05/20 11:45:02;;;;;;;16.05;2.90;;;;;;;13.35;72.03;99909.19;3975395;32;15022595;-81
2021/05/20 11:47:28;;;;;;;11.77;3.05;;;;;;;13.35;72.03;99909.19;4428252;32;20110;-77
2021/05/20 11:49:55;;;;;;;9.88;3.15;;;;;;;13.17;74.08;99912.09;4430946;32;20529;-76
2021/05/20 11:52:21;;;;;;;17.62;3.00;;;;;;;13.44;73.87;99909.16;4429005;32;20108;-76
2021/05/20 11:54:50;;;;;;;11.25;3.50;;;;;;;13.58;72.68;99899.97;4426483;32;20108;-75
2021/05/20 11:57:18;;;;;;;12.98;2.90;;;;;;;13.67;72.57;99894.28;4427259;32;20402;-75
2021/05/20 11:59:47;;;;;;;8.60;3.00;;;;;;;13.61;71.23;99890.53;4427051;32;20698;-74
2021/05/20 12:02:17;;;;;;;10.65;2.55;;;;;;;13.55;71.96;99857.75;4423652;32;20901;-75
2021/05/20 12:04:43;;;;;;;11.77;2.72;;;;;;;13.47;71.25;99871.44;4428755;32;20100;-74
2021/05/20 12:07:26;;;;;;;7.10;1.87;;;;;;;13.10;70.98;99846.69;4430816;32;20049;-75
2021/05/20 12:09:53;;;;;;;9.98;2.60;;;;;;;12.95;70.49;99831.66;4427846;32;20156;-75
2021/05/20 12:12:20;;;;;;;6.43;1.90;;;;;;;12.72;71.33;99830.31;4427442;32;20050;-75
2021/05/20 12:14:47;;;;;;;8.43;2.50;;;;;;;12.74;72.45;99829.84;4426449;32;20129;-75
2021/05/20 12:17:22;;;;;;;8.93;2.85;;;;;;;12.54;72.62;99818.28;4428892;32;20041;-75
2021/05/20 12:22:29;;;;;;;10.73;2.60;;;;;;;13.01;71.00;99793.81;3987788;31;15017515;-75